Time;durP1;ratioP1;P1;durP2;ratioP2;P2;SDS_P1;SDS_P2;PMS_P1;PMS_P2;Temp;Humidity;BMP_temperature;BMP_pressure;BME280_temperature;BME280_humidity;BME280_pressure;Samples;Min_cycle;Max_cycle;Signal;HPM_P1;HPM_P2
2022/12/26 00:02:33;;;;;;;42.15;19.37;;;;;;;6.88;84.43;100167.53;1958040;90;27734;-71
2022/12/26 00:05:38;;;;;;;39.65;19.30;;;;;;;6.90;84.45;100161.20;1957956;90;29822;-71
2022/12/26 00:08:41;;;;;;;36.30;17.77;;;;;;;6.92;84.44;100159.84;1958147;90;31281;-70
2022/12/26 00:11:43;;;;;;;37.23;19.82;;;;;;;6.92;84.44;100150.05;1958042;89;33135;-70
2022/12/26 00:14:45;;;;;;;34.30;18.02;;;;;;;6.92;84.46;100134.54;1958189;90;30841;-67
2022/12/26 00:17:47;;;;;;;33.75;17.70;;;;;;;6.91;84.45;100133.66;1957875;90;27714;-69
2022/12/26 00:20:49;;;;;;;36.33;18.05;;;;;;;6.90;84.49;100137.24;1958411;90;29080;-70
2022/12/26 00:23:51;;;;;;;35.55;17.77;;;;;;;6.91;84.55;100135.47;1958100;90;31078;-69
2022/12/26 00:26:53;;;;;;;29.55;16.27;;;;;;;6.91;84.54;100118.16;1958059;90;33891;-70
2022/12/26 00:29:55;;;;;;;36.42;18.35;;;;;;;6.89;84.62;100098.70;1958281;90;30451;-70
2022/12/26 00:32:57;;;;;;;35.92;18.85;;;;;;;6.88;84.58;100100.48;1958293;90;27705;-71
2022/12/26 00:36:09;;;;;;;36.70;19.15;;;;;;;6.89;84.62;100110.69;1957932;90;29921;-70
2022/12/26 00:39:11;;;;;;;33.67;17.32;;;;;;;6.91;84.70;100112.83;1958220;90;30277;-67
2022/12/26 00:42:13;;;;;;;31.05;17.12;;;;;;;6.92;84.66;100113.23;1958472;90;33911;-68
2022/12/26 00:45:15;;;;;;;31.77;18.55;;;;;;;6.92;84.65;100101.25;1958235;90;29659;-68
2022/12/26 00:48:17;;;;;;;36.83;19.20;;;;;;;6.93;84.63;100085.20;1958269;90;27710;-66
2022/12/26 00:51:19;;;;;;;34.88;17.87;;;;;;;6.94;84.58;100091.41;1958203;90;28685;-68
2022/12/26 00:54:21;;;;;;;39.55;19.57;;;;;;;6.94;84.58;100096.27;1958624;90;31410;-67
2022/12/26 00:57:23;;;;;;;33.18;19.73;;;;;;;6.95;84.54;100090.49;1957909;90;34167;-65
2022/12/26 01:00:25;;;;;;;36.15;19.17;;;;;;;6.95;84.53;100091.82;1957943;90;30855;-68
2022/12/26 01:03:27;;;;;;;40.20;21.90;;;;;;;6.96;84.57;100102.85;1958006;90;27734;-70
2022/12/26 01:06:29;;;;;;;40.58;20.23;;;;;;;6.97;84.56;100114.80;1958051;90;29321;-69
2022/12/26 01:09:31;;;;;;;39.88;19.65;;;;;;;6.98;84.54;100105.88;1957863;90;31998;-64
2022/12/26 01:12:33;;;;;;;40.12;20.80;;;;;;;6.98;84.53;100103.22;1957819;90;34171;-62
2022/12/26 01:15:35;;;;;;;38.17;20.23;;;;;;;7.01;84.56;100114.69;1958201;90;30049;-68
2022/12/26 01:18:37;;;;;;;37.80;19.87;;;;;;;7.03;84.56;100119.50;1958327;90;27713;-69
2022/12/26 01:21:40;;;;;;;35.63;19.82;;;;;;;7.06;84.57;100124.23;1958045;90;29082;-66
2022/12/26 01:24:43;;;;;;;47.17;20.50;;;;;;;7.07;84.51;100108.66;1958164;90;31888;-63
2022/12/26 01:27:46;;;;;;;37.40;20.62;;;;;;;7.08;84.54;100102.41;1958119;90;33858;-66
2022/12/26 01:30:48;;;;;;;35.70;19.40;;;;;;;7.08;84.50;100107.73;1958252;90;30287;-64
2022/12/26 01:33:50;;;;;;;33.42;18.73;;;;;;;7.10;84.53;100085.02;1958093;90;27648;-68
2022/12/26 01:36:53;;;;;;;38.20;18.30;;;;;;;7.09;84.48;100077.51;1958240;90;28759;-66
2022/12/26 01:39:56;;;;;;;35.35;18.15;;;;;;;7.09;84.44;100065.97;1958266;90;31125;-65
2022/12/26 01:42:58;;;;;;;29.63;17.80;;;;;;;7.07;84.35;100054.05;1957870;90;33828;-66
2022/12/26 01:46:00;;;;;;;34.90;18.12;;;;;;;7.05;84.27;100066.56;1957921;90;30818;-70
2022/12/26 01:49:22;;;;;;;35.30;18.87;;;;;;;7.01;84.24;100068.93;1958310;90;27772;-66
2022/12/26 01:52:37;;;;;;;32.58;17.35;;;;;;;6.99;84.20;100076.99;1959104;90;28759;-66
2022/12/26 01:55:40;;;;;;;32.80;17.87;;;;;;;6.96;84.15;100093.53;1958237;90;31229;-68
2022/12/26 01:58:50;;;;;;;38.67;18.55;;;;;;;6.93;84.17;100093.19;1958448;90;33776;-68
2022/12/26 02:01:53;;;;;;;27.82;17.10;;;;;;;6.90;84.12;100091.13;1957811;90;29841;-67
2022/12/26 02:08:23;;;;;;;36.30;18.60;;;;;;;6.83;84.19;100078.03;1942941;91;29928;-66
2022/12/26 02:11:37;;;;;;;29.92;18.50;;;;;;;6.82;84.31;100072.30;1942853;91;32283;-67
2022/12/26 02:14:40;;;;;;;31.15;17.25;;;;;;;6.82;84.36;100076.29;1965607;90;33378;-65
2022/12/26 02:17:43;;;;;;;30.10;17.65;;;;;;;6.84;84.44;100071.78;1971628;90;30843;-67
2022/12/26 02:21:19;;;;;;;33.00;17.67;;;;;;;6.84;84.47;100070.44;1971735;90;27748;-68
2022/12/26 02:24:41;;;;;;;34.13;17.40;;;;;;;6.86;84.52;100083.72;1971473;90;30007;-68
2022/12/26 02:28:17;;;;;;;30.55;16.97;;;;;;;6.88;84.57;100059.20;1971024;90;31914;-65
2022/12/26 02:31:38;;;;;;;;;;;;;;;6.90;84.62;100049.84;1973690;90;34204;-61
2022/12/26 02:35:03;;;;;;;34.88;18.20;;;;;;;6.92;84.60;100049.33;1971401;90;29700;-65
2022/12/26 02:38:32;;;;;;;31.97;18.42;;;;;;;6.92;84.65;100055.98;1971149;90;27817;-61
2022/12/26 02:41:48;;;;;;;35.43;19.95;;;;;;;6.93;84.64;100050.58;1971729;90;29895;-62
2022/12/26 02:48:44;;;;;;;30.40;19.35;;;;;;;6.98;84.70;100019.77;1981142;89;34165;-63
2022/12/26 03:13:18;;;;;;;28.92;16.77;;;;;;;7.08;84.49;100037.14;1981218;89;27780;-63
2022/12/26 03:19:58;;;;;;;31.17;17.23;;;;;;;7.07;84.38;100023.87;1981014;89;33287;-68
2022/12/26 03:23:15;;;;;;;25.05;16.17;;;;;;;7.05;84.33;100009.73;1981239;89;32988;-61
2022/12/26 03:26:38;;;;;;;30.32;16.45;;;;;;;7.04;84.34;100005.34;1981422;89;29428;-66
2022/12/26 03:33:01;;;;;;;31.68;17.05;;;;;;;7.00;84.42;99995.28;1981454;89;28963;-64
2022/12/26 03:36:04;;;;;;;27.80;15.65;;;;;;;7.01;84.53;99993.02;1981259;89;32032;-66
2022/12/26 04:46:06;;;;;;;20.17;13.48;;;;;;;7.45;84.65;99972.16;1858508;95;32383;-64
2022/12/26 04:55:52;;;;;;;24.12;13.83;;;;;;;7.54;84.72;99973.56;1874437;95;27789;-66
2022/12/26 04:58:55;;;;;;;17.15;12.10;;;;;;;7.56;84.69;99965.89;1922381;90;29953;-66
2022/12/26 05:12:09;;;;;;;17.20;12.33;;;;;;;7.69;84.82;99956.06;1974498;90;27218;-65
2022/12/26 05:15:11;;;;;;;16.05;11.43;;;;;;;7.70;84.84;99958.65;1963970;89;28685;-65
2022/12/26 05:31:32;;;;;;;19.15;12.95;;;;;;;7.70;84.79;99946.65;1942556;91;28808;-63
2022/12/26 05:34:33;;;;;;;19.60;11.65;;;;;;;7.70;84.79;99945.77;1943056;91;31039;-61
2022/12/26 05:37:35;;;;;;;17.82;11.28;;;;;;;7.70;84.80;99947.09;1943158;91;33312;-64
2022/12/26 05:40:37;;;;;;;18.40;11.50;;;;;;;7.70;84.84;99944.44;1942710;91;30821;-63
2022/12/26 05:43:39;;;;;;;17.67;11.05;;;;;;;7.71;84.88;99938.17;1943189;91;27758;-62
2022/12/26 05:46:45;;;;;;;17.35;11.48;;;;;;;7.72;84.91;99938.57;1942705;91;28795;-67
2022/12/26 05:49:45;;;;;;;19.17;12.78;;;;;;;7.74;84.96;99950.92;1942763;91;31529;-62
2022/12/26 05:52:46;;;;;;;16.87;11.63;;;;;;;7.76;84.96;99953.51;1943045;91;33752;-62
2022/12/26 05:55:48;;;;;;;18.77;12.15;;;;;;;7.79;85.03;99946.72;1942703;91;30786;-64
2022/12/26 05:58:56;;;;;;;17.20;11.38;;;;;;;7.81;85.04;99966.19;1942886;91;27726;-63
2022/12/26 06:01:57;;;;;;;12.60;10.03;;;;;;;7.83;85.04;99954.98;1942975;91;29764;-67
2022/12/26 06:05:00;;;;;;;14.90;10.32;;;;;;;7.85;85.00;99962.45;1952118;90;32221;-63
2022/12/26 06:08:02;;;;;;;13.40;10.25;;;;;;;7.86;85.03;99964.16;1958089;90;33770;-67
2022/12/26 06:11:07;;;;;;;15.50;10.28;;;;;;;7.87;85.02;99959.71;1958443;90;30583;-67
2022/12/26 06:14:09;;;;;;;;;;;;;;;7.87;84.99;99959.23;1960401;89;27731;-64
2022/12/26 06:17:10;;;;;;;14.45;10.25;;;;;;;7.87;84.93;99949.89;1957897;90;30085;-67
2022/12/26 06:20:12;;;;;;;15.50;10.98;;;;;;;7.85;84.88;99962.45;1957883;90;32526;-62
2022/12/26 06:23:14;;;;;;;17.80;11.03;;;;;;;7.86;84.90;99968.16;1957939;90;33665;-68
2022/12/26 06:26:17;;;;;;;18.37;10.60;;;;;;;7.84;84.82;99966.06;1958095;90;29683;-65
2022/12/26 06:29:18;;;;;;;13.22;9.88;;;;;;;7.84;84.83;99978.51;1958348;90;27574;-65
2022/12/26 06:32:20;;;;;;;15.13;10.78;;;;;;;7.84;84.84;99958.51;1957852;90;29614;-64
2022/12/26 06:35:22;;;;;;;14.20;10.40;;;;;;;7.82;84.82;99958.59;1958251;90;32236;-63
2022/12/26 06:38:24;;;;;;;16.05;10.20;;;;;;;7.83;84.80;99964.32;1957835;90;34209;-64
2022/12/26 06:41:26;;;;;;;12.63;9.63;;;;;;;7.84;84.83;99970.50;1957927;90;30505;-67
2022/12/26 06:44:28;;;;;;;14.63;9.73;;;;;;;7.83;84.79;99970.98;1958388;90;27730;-62
2022/12/26 06:47:30;;;;;;;13.75;9.53;;;;;;;7.84;84.88;99979.84;1958648;90;29068;-67
2022/12/26 06:50:31;;;;;;;14.98;9.45;;;;;;;7.86;84.99;99985.98;1958669;90;32180;-64
2022/12/26 06:53:34;;;;;;;13.43;8.35;;;;;;;7.89;85.16;99980.03;1949658;90;33325;-65
2022/12/26 06:56:36;;;;;;;12.98;8.83;;;;;;;7.96;85.27;99976.63;1958394;90;29080;-68
2022/12/26 06:59:37;;;;;;;12.47;9.03;;;;;;;8.03;85.34;99963.44;1958670;90;27691;-64
2022/12/26 07:02:39;;;;;;;15.10;9.50;;;;;;;8.11;85.34;99972.91;1958113;90;28747;-68
2022/12/26 07:05:41;;;;;;;16.57;9.23;;;;;;;8.18;85.29;99963.22;1958208;90;31064;-67
2022/12/26 07:08:43;;;;;;;16.25;11.28;;;;;;;8.25;85.23;99964.26;1958146;90;34152;-66
2022/12/26 07:11:49;;;;;;;18.27;13.32;;;;;;;8.31;85.19;99974.19;1958040;90;29109;-65
2022/12/26 07:14:51;;;;;;;16.73;10.60;;;;;;;8.38;85.04;99969.43;1964639;89;27832;-68
2022/12/26 07:17:53;;;;;;;14.03;9.75;;;;;;;8.43;84.95;99978.10;1981326;89;29105;-70
2022/12/26 07:20:55;;;;;;;18.82;9.08;;;;;;;8.49;84.84;99970.30;1981488;89;31667;-66
2022/12/26 07:23:57;;;;;;;15.35;9.75;;;;;;;8.56;84.83;99970.88;1980945;89;35123;-67
2022/12/26 07:26:59;;;;;;;14.85;9.65;;;;;;;8.61;84.76;99976.40;1981138;89;30810;-68
2022/12/26 07:30:01;;;;;;;12.75;9.83;;;;;;;8.67;84.58;99985.95;1981378;89;27690;-67
2022/12/26 07:33:03;;;;;;;14.98;9.63;;;;;;;8.72;84.50;99980.39;1981232;89;28747;-65
2022/12/26 07:36:07;;;;;;;13.15;9.65;;;;;;;8.77;84.36;99979.23;1981010;89;32287;-67
2022/12/26 07:39:10;;;;;;;12.45;9.10;;;;;;;8.83;84.27;99984.74;1981310;89;32967;-66
2022/12/26 07:42:12;;;;;;;15.15;9.15;;;;;;;8.88;84.15;99989.41;1981061;89;30874;-63
2022/12/26 07:45:15;;;;;;;11.50;8.13;;;;;;;8.92;83.94;99972.75;1981145;89;27641;-62
2022/12/26 07:48:17;;;;;;;13.65;9.18;;;;;;;8.96;83.93;99980.54;1981309;89;28720;-67
2022/12/26 07:51:19;;;;;;;12.00;9.15;;;;;;;9.00;83.81;99977.73;1981257;89;30840;-65
2022/12/26 07:54:21;;;;;;;9.65;8.35;;;;;;;9.05;83.73;99973.03;1981600;89;33022;-64
2022/12/26 07:57:23;;;;;;;11.22;8.83;;;;;;;9.09;83.61;99986.66;1981016;89;30818;-69
2022/12/26 08:00:25;;;;;;;13.30;7.85;;;;;;;9.15;83.48;99980.14;1981804;89;27678;-66
2022/12/26 08:03:27;;;;;;;12.10;9.03;;;;;;;9.19;83.47;99980.36;1981353;89;29556;-68
2022/12/26 08:06:29;;;;;;;12.03;8.05;;;;;;;9.24;83.41;99986.35;1981088;89;31698;-64
2022/12/26 08:09:32;;;;;;;10.85;7.20;;;;;;;9.28;83.31;99978.58;1981091;89;34176;-70
2022/12/26 08:12:34;;;;;;;11.40;8.35;;;;;;;9.32;83.17;99989.98;1981236;89;30458;-64
2022/12/26 08:15:40;;;;;;;12.10;8.03;;;;;;;9.38;83.05;99994.55;1978068;89;27681;-62
2022/12/26 08:18:42;;;;;;;10.85;8.25;;;;;;;9.43;83.00;99991.67;1973528;90;29262;-66
2022/12/26 08:21:44;;;;;;;9.10;7.83;;;;;;;9.47;82.92;99985.20;1973495;90;32212;-63
2022/12/26 08:24:46;;;;;;;11.55;8.30;;;;;;;9.52;82.75;99996.55;1973370;89;33194;-67
2022/12/26 08:27:47;;;;;;;10.53;7.95;;;;;;;9.56;82.64;99991.45;1973349;90;30056;-69
2022/12/26 08:30:49;;;;;;;10.03;7.83;;;;;;;9.61;82.61;99991.20;1973201;90;27634;-65
2022/12/26 08:33:55;;;;;;;13.22;8.00;;;;;;;9.65;82.50;99998.59;1973260;90;30045;-72
2022/12/26 08:36:58;;;;;;;9.83;7.70;;;;;;;9.67;82.25;99992.24;1973389;90;31035;-66
2022/12/26 08:40:00;;;;;;;11.05;8.45;;;;;;;9.68;82.15;99993.09;1973140;89;34104;-64
2022/12/26 08:43:02;;;;;;;13.05;8.80;;;;;;;9.65;82.00;99996.80;1973138;90;29826;-65
2022/12/26 08:46:08;;;;;;;10.75;7.78;;;;;;;9.63;81.79;99994.67;1973147;90;27707;-68
2022/12/26 08:49:10;;;;;;;11.45;8.53;;;;;;;9.61;81.67;99994.33;1973124;89;29534;-64
2022/12/26 08:52:12;;;;;;;10.98;8.20;;;;;;;9.57;81.63;99998.53;1973204;89;32228;-69
2022/12/26 08:55:16;;;;;;;13.65;9.40;;;;;;;9.55;81.55;100015.57;1972892;89;34325;-68
2022/12/26 08:58:19;;;;;;;11.08;8.65;;;;;;;9.52;81.54;100009.92;1973660;90;29642;-70
2022/12/26 09:01:24;;;;;;;12.37;8.88;;;;;;;9.49;81.46;100010.06;1972787;89;27733;-67
2022/12/26 09:04:26;;;;;;;15.60;8.93;;;;;;;9.47;81.32;100002.58;1973009;90;28659;-68
2022/12/26 09:07:28;;;;;;;14.78;8.55;;;;;;;9.45;81.34;100003.13;1973045;89;31858;-70
2022/12/26 09:10:30;;;;;;;16.73;9.58;;;;;;;9.42;81.39;100014.85;1972543;89;34331;-70
2022/12/26 09:13:33;;;;;;;13.00;8.65;;;;;;;9.40;81.41;100003.36;1972679;90;30796;-67
2022/12/26 09:16:41;;;;;;;14.30;9.70;;;;;;;9.41;81.41;100023.81;1972879;89;28323;-65
2022/12/26 09:19:44;;;;;;;15.45;9.73;;;;;;;9.48;81.62;100019.52;1973225;90;29629;-63
2022/12/26 09:22:53;;;;;;;13.83;9.58;;;;;;;9.53;81.61;100018.78;1973048;90;32342;-71
2022/12/26 09:25:54;;;;;;;14.85;9.93;;;;;;;9.54;81.42;100016.06;1973397;89;33797;-65
2022/12/26 09:28:57;;;;;;;16.35;10.35;;;;;;;9.55;81.35;100022.26;1973043;89;30655;-68
2022/12/26 09:31:59;;;;;;;14.23;9.40;;;;;;;9.57;81.38;100025.72;1973482;89;27745;-71
2022/12/26 09:35:01;;;;;;;14.45;9.98;;;;;;;9.60;81.37;100030.08;1973041;89;28690;-64
2022/12/26 09:38:05;;;;;;;21.20;12.07;;;;;;;9.63;81.50;100030.78;1973007;89;31876;-61
2022/12/26 09:41:27;;;;;;;16.97;8.98;;;;;;;9.74;81.56;100031.58;1973265;90;33371;-63
2022/12/26 09:44:59;;;;;;;15.98;10.82;;;;;;;9.86;81.69;100026.05;1973511;89;30798;-61
2022/12/26 09:48:28;;;;;;;13.43;8.78;;;;;;;10.01;81.69;100017.72;1919779;92;27763;-63
2022/12/26 09:51:34;;;;;;;10.63;8.15;;;;;;;10.15;81.53;100017.01;1920049;92;28680;-62
2022/12/26 09:54:43;;;;;;;11.20;8.83;;;;;;;10.27;81.23;100012.80;1919669;92;32374;-62
2022/12/26 09:57:50;;;;;;;12.82;8.18;;;;;;;10.34;81.26;100012.88;1919818;92;33064;-62
2022/12/26 10:01:20;;;;;;;13.13;7.92;;;;;;;10.42;81.13;100021.87;1919899;92;29801;-62
2022/12/26 10:04:26;;;;;;;10.50;7.58;;;;;;;10.51;81.15;100017.34;1920077;92;27948;-62
2022/12/26 10:07:44;;;;;;;15.88;8.48;;;;;;;10.64;81.09;100023.79;1919989;92;28836;-62
2022/12/26 10:10:57;;;;;;;13.32;8.60;;;;;;;10.80;81.19;100005.53;1918459;92;32263;-67
2022/12/26 10:14:16;;;;;;;16.50;9.28;;;;;;;10.97;81.08;99984.47;1919443;92;32720;-63
2022/12/26 10:17:35;;;;;;;14.70;9.08;;;;;;;11.12;80.76;99984.55;1912892;92;30917;-61
2022/12/26 10:21:10;;;;;;;10.88;7.75;;;;;;;11.24;80.65;99986.55;1914064;90;28330;-64
2022/12/26 10:24:17;;;;;;;13.45;7.72;;;;;;;11.35;80.31;99988.13;1957767;90;30033;-72
2022/12/26 10:27:20;;;;;;;14.35;9.33;;;;;;;11.45;80.09;99988.91;1958632;90;31049;-70
2022/12/26 10:30:27;;;;;;;17.50;9.70;;;;;;;11.53;79.98;99982.14;1958001;90;33819;-69
2022/12/26 10:33:40;;;;;;;14.35;8.65;;;;;;;11.63;79.75;99969.55;1958447;90;30611;-66
2022/12/26 10:36:53;;;;;;;10.48;7.58;;;;;;;11.70;79.62;99971.77;1956685;90;27782;-70
2022/12/26 10:40:21;;;;;;;13.15;8.15;;;;;;;11.78;79.50;99978.02;1958555;90;28682;-66
2022/12/26 10:43:32;;;;;;;11.65;8.60;;;;;;;11.82;79.35;99976.01;1930420;91;31085;-69
2022/12/26 10:46:58;;;;;;;13.93;8.50;;;;;;;11.84;78.91;99982.16;1930190;92;34350;-68
2022/12/26 10:50:00;;;;;;;9.83;7.53;;;;;;;11.84;78.64;99978.13;1930615;92;30109;-70
2022/12/26 10:53:05;;;;;;;12.73;8.88;;;;;;;11.82;78.45;99975.55;1930240;92;27813;-70
2022/12/26 10:56:08;;;;;;;12.58;8.33;;;;;;;11.80;78.40;99973.89;1930219;92;29568;-71
2022/12/26 10:59:15;;;;;;;11.78;9.40;;;;;;;11.77;78.03;99967.36;1930482;92;32297;-68
2022/12/26 11:02:29;;;;;;;12.18;8.90;;;;;;;11.73;78.04;99969.86;1930171;92;33865;-63
2022/12/26 11:05:34;;;;;;;16.65;9.33;;;;;;;11.68;77.93;99968.31;1930615;92;29666;-67
2022/12/26 11:08:50;;;;;;;18.75;12.05;;;;;;;11.62;77.75;99973.18;1930837;92;27803;-70
2022/12/26 11:11:53;;;;;;;16.77;11.85;;;;;;;11.55;77.65;99963.30;1929769;92;28682;-70
2022/12/26 11:15:03;;;;;;;19.48;11.55;;;;;;;11.51;77.69;99967.95;1930525;92;32000;-70
2022/12/26 11:18:38;;;;;;;15.95;10.72;;;;;;;11.49;77.66;99980.63;1929324;91;33008;-63
2022/12/26 11:21:41;;;;;;;10.53;8.13;;;;;;;11.50;77.92;99970.73;1946871;91;29813;-70
2022/12/26 11:24:43;;;;;;;10.70;7.62;;;;;;;11.52;77.77;99960.30;1947023;91;27594;-63
2022/12/26 11:27:57;;;;;;;10.53;8.25;;;;;;;11.57;77.74;99961.39;1946637;91;29990;-65
2022/12/26 11:31:03;;;;;;;9.95;7.85;;;;;;;11.62;77.67;99958.42;1947095;90;31036;-65
2022/12/26 11:34:13;;;;;;;9.73;7.60;;;;;;;11.64;77.66;99953.34;1946657;91;34165;-67
2022/12/26 11:37:30;;;;;;;10.23;8.58;;;;;;;11.67;77.50;99960.33;1946632;90;30832;-66
2022/12/26 11:41:30;;;;;;;18.30;8.90;;;;;;;11.73;77.57;99968.52;1941832;91;27548;-64
2022/12/26 11:43:48;;;;;;;11.40;7.72;;;;;;;11.77;77.17;99960.65;1946963;91;28715;-65
2022/12/26 11:47:15;;;;;;;14.83;7.05;;;;;;;11.80;77.28;99961.81;1947330;91;31638;-68
2022/12/26 11:50:20;;;;;;;8.63;6.17;;;;;;;11.83;77.12;99953.58;1947440;91;33058;-67
2022/12/26 11:53:23;;;;;;;14.60;8.78;;;;;;;11.89;77.16;99936.23;1881593;94;30306;-65
2022/12/26 11:56:25;;;;;;;11.00;7.35;;;;;;;12.00;77.09;99927.06;1936804;91;27728;-65
2022/12/26 11:59:27;;;;;;;12.30;7.75;;;;;;;12.11;76.79;99914.32;1936315;91;29546;-70
2022/12/26 12:02:31;;;;;;;12.82;7.85;;;;;;;12.16;76.73;99909.05;1936246;91;32259;-69
2022/12/26 12:05:50;;;;;;;10.55;7.40;;;;;;;12.21;76.63;99912.81;1936279;91;33855;-66
2022/12/26 12:09:30;;;;;;;11.20;7.42;;;;;;;12.27;76.53;99920.95;1936638;91;30575;-68
2022/12/26 12:12:40;;;;;;;13.30;7.78;;;;;;;12.33;76.51;99922.38;1936426;91;28260;-68
2022/12/26 12:16:13;;;;;;;10.20;7.70;;;;;;;12.38;76.14;99920.28;1936716;91;28527;-68
2022/12/26 12:19:46;;;;;;;9.78;7.50;;;;;;;12.40;76.15;99915.18;1961243;90;32262;-67
2022/12/26 12:22:59;;;;;;;9.18;6.83;;;;;;;12.41;75.65;99926.80;1961167;90;34360;-70
2022/12/26 12:26:12;;;;;;;11.20;8.00;;;;;;;12.40;75.74;99930.45;1961679;90;29665;-70
2022/12/26 12:30:10;;;;;;;13.00;7.53;;;;;;;12.35;75.22;99929.88;1897804;93;27977;-70
2022/12/26 12:33:48;;;;;;;11.65;8.45;;;;;;;12.30;75.24;99919.42;1897649;93;29397;-70
2022/12/26 12:37:13;;;;;;;14.33;9.48;;;;;;;12.26;75.44;99923.25;1897957;93;31072;-68
2022/12/26 12:40:43;;;;;;;12.98;8.33;;;;;;;12.25;75.08;99927.75;1897313;93;34161;-69
2022/12/26 12:43:53;;;;;;;14.00;9.20;;;;;;;12.24;75.04;99927.39;1897688;93;28618;-70
2022/12/26 12:47:09;;;;;;;15.28;9.73;;;;;;;12.25;75.24;99941.17;1898026;93;27811;-70
2022/12/26 12:50:33;;;;;;;25.75;12.95;;;;;;;12.26;75.12;99946.08;1897919;93;29214;-64
2022/12/26 12:54:07;;;;;;;10.93;7.65;;;;;;;12.28;75.02;99941.48;1897884;93;32081;-67
2022/12/26 12:57:34;;;;;;;12.75;7.35;;;;;;;12.27;74.93;99930.36;1897657;93;34194;-67
2022/12/26 13:00:50;;;;;;;14.55;8.18;;;;;;;12.28;74.97;99924.02;1897894;93;29743;-69
2022/12/26 13:04:15;;;;;;;12.15;7.37;;;;;;;12.29;74.99;99917.20;1898044;93;27680;-69
2022/12/26 13:07:22;;;;;;;8.47;6.83;;;;;;;12.30;75.02;99910.88;1950272;90;29100;-63
2022/12/26 13:10:33;;;;;;;11.33;6.50;;;;;;;12.30;74.47;99922.95;1961498;90;31062;-71
2022/12/26 13:13:59;;;;;;;11.63;7.10;;;;;;;12.28;74.52;99930.73;1961472;90;33086;-70
2022/12/26 13:17:04;;;;;;;;;;;;;;;12.27;74.58;99931.70;1967134;90;29755;-69
2022/12/26 13:20:31;;;;;;;27.02;15.23;;;;;;;12.24;74.26;99927.39;1973452;89;27624;-65
2022/12/26 13:27:24;;;;;;;12.18;9.30;;;;;;;12.19;74.37;99932.64;1973450;90;31107;-65
2022/12/26 13:30:26;;;;;;;11.75;7.42;;;;;;;12.16;74.36;99929.67;1973307;89;33004;-71
2022/12/26 13:33:28;;;;;;;13.45;8.28;;;;;;;12.15;74.41;99930.17;1972972;90;29752;-70
2022/12/26 13:36:41;;;;;;;9.93;6.53;;;;;;;12.14;74.40;99932.47;1913017;92;27803;-64
2022/12/26 13:39:43;;;;;;;13.50;7.83;;;;;;;12.14;74.00;99940.98;1944561;91;28757;-70
2022/12/26 13:46:43;;;;;;;9.60;6.90;;;;;;;12.11;74.06;99948.77;1913131;93;32814;-61
2022/12/26 13:49:45;;;;;;;10.08;6.67;;;;;;;12.10;74.11;99942.13;1944556;91;30810;-69
2022/12/26 13:52:47;;;;;;;9.13;6.45;;;;;;;12.08;74.18;99937.36;1943296;91;28930;-68
2022/12/26 13:55:50;;;;;;;11.30;6.80;;;;;;;12.07;73.95;99942.34;1931017;92;28714;-64
2022/12/26 13:59:03;;;;;;;11.53;7.78;;;;;;;12.05;73.89;99943.77;1913337;93;31138;-71
2022/12/26 14:02:25;;;;;;;8.23;6.30;;;;;;;12.04;73.93;99937.16;1943175;91;33048;-67
2022/12/26 14:05:50;;;;;;;13.53;7.45;;;;;;;12.05;73.94;99934.86;1913402;93;30010;-70
2022/12/26 14:09:26;;;;;;;9.75;6.58;;;;;;;12.03;74.05;99932.25;1944617;91;28174;-67
2022/12/26 14:13:11;;;;;;;13.10;8.10;;;;;;;12.03;74.00;99929.56;1942933;91;43265;-68
2022/12/26 14:16:47;;;;;;;11.85;9.03;;;;;;;12.03;73.90;99932.75;1940015;91;32234;-71
2022/12/26 14:20:26;;;;;;;12.63;8.03;;;;;;;12.00;73.90;99927.95;1940259;91;34408;-66
2022/12/26 14:23:49;;;;;;;15.60;10.25;;;;;;;11.97;73.88;99925.41;1934127;91;30942;-71
2022/12/26 14:27:14;;;;;;;15.80;9.90;;;;;;;11.93;73.90;99929.23;1940624;91;27731;-67
2022/12/26 14:30:34;;;;;;;15.70;10.68;;;;;;;11.89;73.79;99929.52;1940786;91;28763;-66
2022/12/26 14:33:53;;;;;;;15.53;9.73;;;;;;;11.82;73.73;99925.89;1940803;91;31066;-70
2022/12/26 14:37:23;;;;;;;17.48;11.45;;;;;;;11.79;73.74;99929.22;1940407;91;33089;-71
2022/12/26 14:40:33;;;;;;;17.80;10.63;;;;;;;11.75;73.92;99926.36;1940270;91;30860;-70
2022/12/26 14:43:39;;;;;;;15.55;9.85;;;;;;;11.71;73.74;99927.00;1940472;91;27661;-69
2022/12/26 14:46:47;;;;;;;12.90;8.43;;;;;;;11.67;73.68;99935.72;1941368;91;29859;-70
2022/12/26 14:49:49;;;;;;;14.93;8.73;;;;;;;11.66;73.83;99938.02;1956879;90;31215;-70
2022/12/26 14:52:52;;;;;;;11.28;7.53;;;;;;;11.64;73.84;99949.32;1973526;89;34136;-69
2022/12/26 14:56:14;;;;;;;12.85;8.03;;;;;;;11.64;73.96;99945.30;1973505;89;30792;-68
2022/12/26 14:59:27;;;;;;;12.35;8.30;;;;;;;11.64;73.93;99948.47;1913557;92;28280;-69
2022/12/26 15:02:33;;;;;;;14.87;9.68;;;;;;;11.61;73.80;99948.64;1912774;93;29905;-66
2022/12/26 15:05:41;;;;;;;22.87;11.53;;;;;;;11.58;73.84;99948.36;1913413;91;31757;-67
2022/12/26 15:08:57;;;;;;;28.95;12.35;;;;;;;11.56;73.91;99943.56;1913030;93;34195;-67
2022/12/26 15:12:27;;;;;;;22.87;13.32;;;;;;;11.53;73.84;99935.69;1936874;91;29574;-69
2022/12/26 15:16:06;;;;;;;22.25;11.03;;;;;;;11.50;73.90;99939.89;1944873;91;27701;-69
2022/12/26 15:19:38;;;;;;;19.12;11.05;;;;;;;11.46;73.92;99943.70;1943107;91;28677;-64
2022/12/26 15:22:51;;;;;;;19.42;10.75;;;;;;;11.44;73.95;99950.97;1973527;90;31450;-66
2022/12/26 15:26:16;;;;;;;17.50;10.45;;;;;;;11.42;74.03;99951.56;1973140;89;33087;-67
2022/12/26 15:29:38;;;;;;;19.45;10.23;;;;;;;11.40;74.09;99953.86;1882106;94;29934;-64
2022/12/26 15:33:02;;;;;;;21.40;11.73;;;;;;;11.38;74.05;99938.80;1820943;97;27801;-65
2022/12/26 15:36:15;;;;;;;20.68;11.43;;;;;;;11.36;74.12;99934.88;1820742;97;29180;-69
2022/12/26 15:39:27;;;;;;;17.73;10.65;;;;;;;11.34;74.10;99938.12;1820970;97;30485;-67
2022/12/26 15:43:18;;;;;;;15.63;9.78;;;;;;;11.34;74.14;99938.58;1821001;97;32970;-69
2022/12/26 15:46:34;;;;;;;15.93;10.08;;;;;;;11.32;74.08;99948.06;1793914;98;30830;-66
2022/12/26 15:50:20;;;;;;;14.50;9.35;;;;;;;11.30;74.18;99955.33;1782301;99;27785;-68
2022/12/26 15:54:02;;;;;;;11.20;7.83;;;;;;;11.29;74.28;99953.61;1794058;99;29956;-65
2022/12/26 15:57:24;;;;;;;12.03;7.87;;;;;;;11.28;74.30;99954.55;1767378;100;31066;-68
2022/12/26 16:00:34;;;;;;;11.85;7.72;;;;;;;11.26;74.29;99948.41;1793669;99;34195;-70
2022/12/26 16:03:50;;;;;;;11.22;7.30;;;;;;;11.25;74.38;99949.39;1767320;100;29735;-71
2022/12/26 16:07:23;;;;;;;10.30;7.20;;;;;;;11.23;74.39;99946.78;1834501;96;27687;-69
2022/12/26 16:10:32;;;;;;;13.55;9.23;;;;;;;11.23;74.48;99945.94;1907402;92;28703;-72
2022/12/26 16:13:35;;;;;;;10.65;7.72;;;;;;;11.22;74.53;99950.91;1973313;90;31052;-70
2022/12/26 16:16:38;;;;;;;9.70;7.62;;;;;;;11.22;74.53;99954.44;1973322;89;33787;-70
2022/12/26 16:19:43;;;;;;;12.98;7.67;;;;;;;11.21;74.52;99972.82;1964044;90;30460;-70
2022/12/26 16:22:45;;;;;;;13.05;7.87;;;;;;;11.22;74.77;99985.28;1963018;90;27848;-70
2022/12/26 16:25:54;;;;;;;10.53;7.15;;;;;;;11.22;74.96;99996.49;1962719;90;29513;-70
2022/12/26 16:28:58;;;;;;;10.53;6.65;;;;;;;11.20;75.18;100003.27;1962919;90;31141;-70
2022/12/26 16:32:07;;;;;;;11.68;6.08;;;;;;;11.19;75.39;100015.44;1962700;90;33001;-71
2022/12/26 16:35:28;;;;;;;8.50;6.10;;;;;;;11.14;75.59;100025.55;1905689;92;29705;-68
2022/12/26 16:38:31;;;;;;;8.48;5.60;;;;;;;11.10;75.88;100042.28;1905893;93;27727;-71
2022/12/26 16:41:34;;;;;;;8.65;5.33;;;;;;;11.03;75.91;100043.11;1906849;92;29877;-71
2022/12/26 16:44:40;;;;;;;8.25;5.30;;;;;;;10.96;75.98;100048.89;1916993;92;31132;-70
2022/12/26 16:47:41;;;;;;;;;;;;;;;10.91;76.13;100047.81;1908127;92;32967;-70
2022/12/26 16:50:56;;;;;;;11.28;6.20;;;;;;;10.83;76.18;100050.92;1891140;92;30504;-71
2022/12/26 16:54:23;;;;;;;13.72;9.18;;;;;;;10.74;76.30;100036.21;1917776;92;27777;-70
2022/12/26 16:57:26;;;;;;;8.03;5.30;;;;;;;10.68;76.37;100035.19;1905584;93;30052;-70
2022/12/26 17:00:28;;;;;;;14.13;7.40;;;;;;;10.64;76.45;100038.98;1917297;92;31921;-68
2022/12/26 17:03:55;;;;;;;9.10;5.85;;;;;;;10.59;76.51;100043.25;1917278;92;34174;-70